createdAt,value
2022-08-22T00:02:26.732Z,26.60
2022-08-22T00:02:48.149Z,28.80
2022-08-22T00:03:04.339Z,27.00
2022-08-22T00:03:16.333Z,26.70
2022-08-22T00:05:26.629Z,26.50
2022-08-22T00:08:22.867Z,26.50
2022-08-22T00:11:19.538Z,26.50
2022-08-22T00:14:17.786Z,26.50
2022-08-22T00:17:23.853Z,26.40
2022-08-22T00:20:18.008Z,26.40
2022-08-22T00:23:13.846Z,26.20
2022-08-22T00:26:08.020Z,26.20
2022-08-22T00:29:02.638Z,26.20
2022-08-22T00:32:02.122Z,26.20
2022-08-22T00:34:58.817Z,26.30
2022-08-22T00:37:54.636Z,26.30
2022-08-22T00:40:57.001Z,26.20
2022-08-22T00:44:18.976Z,26.20
2022-08-22T00:47:38.650Z,26.20
2022-08-22T00:50:41.298Z,26.10
2022-08-22T00:53:46.407Z,26.10
2022-08-22T00:57:00.497Z,26.00
2022-08-22T01:00:10.999Z,26.00
2022-08-22T01:03:45.617Z,25.90
2022-08-22T01:06:46.306Z,25.70
2022-08-22T01:09:47.388Z,25.60
2022-08-22T01:12:51.337Z,25.60
2022-08-22T01:15:43.585Z,25.50
2022-08-22T01:22:03.971Z,25.40
2022-08-22T01:25:33.400Z,25.40
2022-08-22T01:28:57.002Z,25.50
2022-08-22T01:32:26.135Z,25.50
2022-08-22T01:35:50.389Z,25.50
2022-08-22T01:39:17.293Z,25.60
2022-08-22T01:42:45.829Z,25.60
2022-08-22T01:45:53.399Z,25.60
2022-08-22T01:48:47.868Z,25.60
2022-08-22T01:51:48.204Z,25.50
2022-08-22T01:54:46.290Z,25.40
2022-08-22T01:57:52.313Z,25.40
2022-08-22T02:00:58.536Z,25.40
2022-08-22T02:04:01.495Z,25.40
2022-08-22T02:07:00.479Z,25.40
2022-08-22T02:10:01.218Z,25.40
2022-08-22T02:13:02.837Z,25.40
2022-08-22T02:16:03.991Z,25.40
2022-08-22T02:19:04.646Z,25.50
2022-08-22T02:21:59.344Z,25.50
2022-08-22T02:24:55.748Z,25.50
2022-08-22T02:27:55.358Z,25.40
2022-08-22T02:30:52.393Z,25.50
2022-08-22T02:33:50.243Z,25.50
2022-08-22T02:36:48.599Z,25.40
2022-08-22T02:39:44.585Z,25.40
2022-08-22T02:42:43.269Z,25.40
2022-08-22T02:45:39.296Z,25.30
2022-08-22T02:48:38.747Z,25.30
2022-08-22T02:51:36.055Z,25.30
2022-08-22T02:54:29.205Z,25.30
2022-08-22T02:57:28.217Z,25.30
2022-08-22T03:00:31.207Z,25.30
2022-08-22T03:03:25.258Z,25.30
2022-08-22T03:06:39.312Z,25.30
2022-08-22T03:09:34.070Z,25.30
2022-08-22T03:12:32.371Z,25.30
2022-08-22T03:15:27.304Z,25.20
2022-08-22T03:18:27.892Z,25.20
2022-08-22T03:21:25.992Z,25.20
2022-08-22T03:24:20.074Z,25.20
2022-08-22T03:27:32.819Z,25.20
2022-08-22T03:30:32.271Z,25.20
2022-08-22T03:33:23.872Z,25.20
2022-08-22T03:36:27.154Z,25.20
2022-08-22T03:39:20.048Z,25.10
2022-08-22T03:42:38.621Z,25.10
2022-08-22T03:45:57.011Z,25.10
2022-08-22T03:49:09.211Z,25.10
2022-08-22T03:52:20.959Z,25.10
2022-08-22T03:55:22.343Z,25.10
2022-08-22T03:58:44.166Z,25.10
2022-08-22T04:02:42.210Z,25.00
2022-08-22T04:05:45.374Z,25.00
2022-08-22T04:09:11.939Z,25.10
2022-08-22T04:12:29.435Z,25.00
2022-08-22T04:15:46.990Z,25.00
2022-08-22T04:19:08.223Z,25.00
2022-08-22T04:22:13.886Z,25.00
2022-08-22T04:25:08.187Z,25.00
2022-08-22T04:28:07.075Z,25.00
2022-08-22T04:31:03.106Z,25.00
2022-08-22T04:33:55.596Z,24.90
2022-08-22T04:36:49.066Z,24.90
2022-08-22T04:39:50.415Z,24.80
2022-08-22T04:42:43.519Z,24.80
2022-08-22T04:45:37.602Z,24.80
2022-08-22T04:48:34.234Z,24.80
2022-08-22T04:51:28.112Z,24.80
2022-08-22T04:54:39.209Z,24.80
2022-08-22T04:57:38.360Z,24.80
2022-08-22T05:00:27.639Z,24.80
2022-08-22T05:03:18.681Z,24.90
2022-08-22T05:06:09.725Z,24.80
2022-08-22T05:09:02.188Z,24.80
2022-08-22T05:11:57.856Z,24.90
2022-08-22T05:14:54.424Z,24.90
2022-08-22T05:17:45.596Z,24.80
2022-08-22T05:20:38.371Z,25.00
2022-08-22T05:23:35.350Z,25.00
2022-08-22T05:26:24.682Z,25.10
2022-08-22T05:29:19.637Z,25.10
2022-08-22T05:32:20.699Z,25.20
2022-08-22T05:35:11.200Z,25.20
2022-08-22T05:38:00.331Z,25.30
2022-08-22T05:40:54.198Z,25.30
2022-08-22T05:43:45.471Z,25.40
2022-08-22T05:46:42.820Z,25.40
2022-08-22T05:49:39.659Z,25.30
2022-08-22T05:52:42.709Z,25.40
2022-08-22T05:55:37.779Z,25.50
2022-08-22T05:58:48.401Z,25.40
2022-08-22T06:01:42.698Z,25.50
2022-08-22T06:04:38.136Z,25.50
2022-08-22T06:07:30.235Z,25.60
2022-08-22T06:10:23.615Z,25.60
2022-08-22T06:13:17.943Z,25.60
2022-08-22T06:16:18.721Z,25.60
2022-08-22T06:19:19.981Z,25.70
2022-08-22T06:22:12.192Z,25.80
2022-08-22T06:25:13.086Z,25.80
2022-08-22T06:28:05.365Z,25.80
2022-08-22T06:30:56.750Z,25.80
2022-08-22T06:33:48.577Z,25.90
2022-08-22T06:36:41.159Z,25.90
2022-08-22T06:39:34.251Z,25.90
2022-08-22T06:42:26.812Z,26.00
2022-08-22T06:45:21.034Z,26.00
2022-08-22T06:48:16.785Z,26.00
2022-08-22T06:51:08.904Z,26.10
2022-08-22T06:54:01.917Z,26.20
2022-08-22T06:56:54.694Z,26.20
2022-08-22T06:59:44.854Z,26.30
2022-08-22T07:02:39.941Z,26.30
2022-08-22T07:05:31.016Z,26.30
2022-08-22T07:08:24.789Z,26.50
2022-08-22T07:11:28.187Z,26.50
2022-08-22T07:34:54.254Z,26.90
2022-08-22T07:37:56.378Z,26.90
2022-08-22T07:40:55.624Z,26.90
2022-08-22T07:43:50.439Z,26.90
2022-08-22T07:46:44.246Z,26.90
2022-08-22T07:49:39.846Z,26.90
2022-08-22T07:52:43.748Z,26.80
2022-08-22T07:55:33.234Z,26.80
2022-08-22T07:58:34.851Z,26.90
2022-08-22T08:01:25.514Z,26.80
2022-08-22T08:04:19.468Z,26.80
2022-08-22T08:07:12.176Z,26.80
2022-08-22T08:10:10.021Z,26.80
2022-08-22T08:13:06.252Z,26.90
2022-08-22T08:15:55.571Z,27.00
2022-08-22T08:18:47.592Z,27.00
2022-08-22T08:21:40.879Z,26.90
2022-08-22T08:24:37.073Z,27.00
2022-08-22T08:27:54.024Z,27.00
2022-08-22T08:30:46.703Z,27.10
2022-08-22T08:33:39.918Z,27.10
2022-08-22T08:36:40.737Z,27.10
2022-08-22T08:39:38.398Z,27.20
2022-08-22T08:43:14.602Z,27.20
2022-08-22T08:46:55.708Z,27.00
2022-08-22T08:50:01.447Z,27.20
2022-08-22T08:53:17.130Z,27.30
2022-08-22T08:59:44.161Z,27.40
2022-08-22T09:02:49.143Z,27.40
2022-08-22T09:06:01.057Z,27.40
2022-08-22T09:09:03.359Z,27.40
2022-08-22T09:12:32.796Z,27.50
2022-08-22T09:15:58.677Z,27.50
2022-08-22T09:19:43.013Z,27.60
2022-08-22T09:22:51.537Z,27.60
2022-08-22T09:25:46.714Z,27.70
2022-08-22T09:28:40.765Z,27.70
2022-08-22T09:35:03.451Z,27.90
2022-08-22T09:38:11.058Z,28.00
2022-08-22T09:41:12.608Z,28.10
2022-08-22T09:44:17.195Z,28.10
2022-08-22T09:47:17.436Z,28.10
2022-08-22T09:50:17.652Z,28.10
2022-08-22T09:53:12.418Z,28.20
2022-08-22T09:56:11.657Z,28.30
2022-08-22T09:59:09.892Z,28.30
2022-08-22T10:02:06.768Z,28.30
2022-08-22T10:05:35.167Z,28.30
2022-08-22T10:08:40.236Z,28.40
2022-08-22T10:11:32.008Z,28.50
2022-08-22T10:14:25.105Z,28.50
2022-08-22T10:17:21.942Z,28.70
2022-08-22T10:20:22.192Z,28.60
2022-08-22T10:26:22.975Z,28.90
2022-08-22T10:29:37.519Z,29.00
2022-08-22T10:32:36.846Z,29.10
2022-08-22T10:35:34.032Z,29.20
2022-08-22T10:38:27.784Z,29.30
2022-08-22T10:41:29.395Z,29.40
2022-08-22T10:44:22.493Z,29.40
2022-08-22T10:47:16.555Z,29.40
2022-08-22T10:50:16.657Z,29.50
2022-08-22T10:56:30.307Z,29.80
2022-08-22T10:59:34.218Z,29.90
2022-08-22T11:02:42.320Z,30.00
2022-08-22T11:05:39.385Z,30.20
2022-08-22T11:08:55.039Z,30.20
2022-08-22T11:11:48.000Z,30.40
2022-08-22T11:15:12.423Z,30.50
2022-08-22T11:18:17.931Z,30.60
2022-08-22T11:21:12.179Z,30.60
2022-08-22T11:24:17.147Z,30.60
2022-08-22T11:27:30.660Z,30.60
2022-08-22T11:30:45.296Z,30.70
2022-08-22T11:33:46.935Z,30.80
2022-08-22T11:36:41.217Z,31.00
2022-08-22T11:39:40.328Z,31.10
2022-08-22T11:42:35.226Z,31.10
2022-08-22T11:45:41.964Z,31.20
2022-08-22T11:48:42.806Z,31.30
2022-08-22T11:55:23.313Z,31.70
2022-08-22T11:58:29.218Z,31.80
2022-08-22T12:01:22.012Z,32.00
2022-08-22T12:04:17.511Z,32.10
2022-08-22T12:07:15.518Z,32.20
2022-08-22T12:10:13.608Z,32.20
2022-08-22T12:13:09.876Z,32.30
2022-08-22T12:16:10.594Z,32.40
2022-08-22T12:19:09.922Z,32.70
2022-08-22T12:22:37.726Z,32.70
2022-08-22T12:25:53.072Z,32.80
2022-08-22T12:32:01.004Z,33.10
2022-08-22T12:35:00.694Z,33.20
2022-08-22T12:37:57.713Z,33.30
2022-08-22T12:41:08.003Z,33.40
2022-08-22T12:44:08.977Z,33.50
2022-08-22T12:47:17.442Z,33.50
2022-08-22T12:50:22.680Z,33.60
2022-08-22T12:53:47.778Z,33.60
2022-08-22T12:56:47.239Z,33.70
2022-08-22T12:59:40.051Z,33.70
2022-08-22T13:02:34.218Z,33.70
2022-08-22T13:05:26.711Z,33.70
2022-08-22T13:08:26.502Z,33.70
2022-08-22T13:11:23.268Z,33.90
2022-08-22T13:14:19.033Z,33.90
2022-08-22T13:17:24.648Z,34.00
2022-08-22T13:20:26.786Z,34.10
2022-08-22T13:23:21.502Z,34.20
2022-08-22T13:26:21.716Z,34.20
2022-08-22T13:29:27.042Z,34.30
2022-08-22T13:32:23.634Z,34.30
2022-08-22T13:35:24.818Z,34.40
2022-08-22T13:38:25.595Z,34.30
2022-08-22T13:41:22.662Z,34.40
2022-08-22T13:44:20.779Z,34.50
2022-08-22T13:47:16.429Z,34.50
2022-08-22T13:50:11.526Z,34.50
2022-08-22T13:53:07.104Z,34.30
2022-08-22T13:56:03.105Z,34.20
2022-08-22T13:58:55.295Z,34.30
2022-08-22T14:01:53.059Z,34.30
2022-08-22T14:04:44.467Z,34.30
2022-08-22T14:07:40.103Z,34.40
2022-08-22T14:10:36.022Z,34.50
2022-08-22T14:13:40.588Z,34.50
2022-08-22T14:16:33.617Z,34.60
2022-08-22T14:19:30.515Z,34.70
2022-08-22T14:22:32.004Z,34.70
2022-08-22T14:25:26.241Z,34.70
2022-08-22T14:28:28.645Z,34.70
2022-08-22T14:31:25.704Z,34.70
2022-08-22T14:34:16.936Z,34.60
2022-08-22T14:40:07.822Z,33.90
2022-08-22T14:43:03.171Z,33.70
2022-08-22T14:46:02.143Z,33.80
2022-08-22T14:49:19.202Z,34.00
2022-08-22T14:52:19.633Z,34.10
2022-08-22T14:55:15.284Z,34.00
2022-08-22T14:58:08.694Z,33.80
2022-08-22T15:01:08.497Z,33.80
2022-08-22T15:04:05.262Z,33.80
2022-08-22T15:06:57.859Z,33.70
2022-08-22T15:09:53.807Z,33.40
2022-08-22T15:12:50.221Z,33.00
2022-08-22T15:15:49.479Z,32.60
2022-08-22T15:18:51.840Z,32.50
2022-08-22T15:21:41.738Z,32.60
2022-08-22T15:24:31.810Z,32.90
2022-08-22T15:27:21.729Z,33.00
2022-08-22T15:30:20.315Z,33.30
2022-08-22T15:33:12.712Z,33.40
2022-08-22T15:36:15.783Z,33.50
2022-08-22T15:39:30.268Z,33.50
2022-08-22T15:42:27.710Z,33.50
2022-08-22T15:45:33.878Z,33.50
2022-08-22T15:48:31.297Z,33.50
2022-08-22T15:51:38.286Z,33.40
2022-08-22T15:54:34.568Z,33.10
2022-08-22T15:57:26.489Z,32.80
2022-08-22T16:00:30.407Z,32.50
2022-08-22T16:03:28.836Z,32.10
2022-08-22T16:06:50.736Z,31.80
2022-08-22T16:09:44.530Z,31.80
2022-08-22T16:12:37.552Z,31.80
2022-08-22T16:15:59.780Z,31.90
2022-08-22T16:19:16.798Z,32.00
2022-08-22T16:22:16.292Z,32.20
2022-08-22T16:25:10.908Z,32.20
2022-08-22T16:28:01.693Z,32.20
2022-08-22T16:30:52.424Z,32.20
2022-08-22T16:33:43.482Z,32.10
2022-08-22T16:36:44.992Z,32.10
2022-08-22T16:39:39.044Z,32.00
2022-08-22T16:42:37.909Z,32.00
2022-08-22T16:45:36.321Z,31.90
2022-08-22T16:48:35.711Z,31.90
2022-08-22T16:51:24.798Z,31.80
2022-08-22T16:54:34.151Z,31.70
2022-08-22T16:57:27.294Z,31.60
2022-08-22T17:00:27.597Z,31.60
2022-08-22T17:03:22.543Z,31.50
2022-08-22T17:06:32.190Z,31.40
2022-08-22T17:09:56.676Z,31.30
2022-08-22T17:12:59.256Z,31.20
2022-08-22T17:16:03.419Z,31.20
2022-08-22T17:19:12.004Z,31.10
2022-08-22T17:22:06.640Z,30.90
2022-08-22T17:25:10.166Z,30.80
2022-08-22T17:28:13.476Z,30.80
2022-08-22T17:31:09.934Z,30.70
2022-08-22T17:34:23.759Z,30.60
2022-08-22T17:37:22.626Z,30.60
2022-08-22T17:40:37.823Z,30.60
2022-08-22T17:43:49.257Z,30.60
2022-08-22T17:46:48.540Z,30.50
2022-08-22T17:49:52.650Z,30.40
2022-08-22T17:52:46.668Z,30.40
2022-08-22T17:55:41.810Z,30.30
2022-08-22T17:58:43.898Z,30.20
2022-08-22T18:01:51.757Z,30.20
2022-08-22T18:04:47.609Z,30.20
2022-08-22T18:08:05.194Z,30.10
2022-08-22T18:11:02.081Z,30.00
2022-08-22T18:13:59.376Z,30.00
2022-08-22T18:16:56.117Z,29.90
2022-08-22T18:19:54.045Z,29.90
2022-08-22T18:22:48.112Z,29.80
2022-08-22T18:25:42.852Z,29.80
2022-08-22T18:28:37.599Z,29.80
2022-08-22T18:31:41.428Z,29.80
2022-08-22T18:34:40.653Z,29.70
2022-08-22T18:37:49.403Z,29.60
2022-08-22T18:40:50.012Z,29.60
2022-08-22T18:43:41.931Z,29.50
2022-08-22T18:46:42.735Z,29.40
2022-08-22T18:49:48.626Z,29.30
2022-08-22T18:52:41.809Z,29.30
2022-08-22T18:55:50.043Z,29.20
2022-08-22T18:59:05.530Z,29.20
2022-08-22T19:02:11.746Z,29.20
2022-08-22T19:05:34.769Z,29.10
2022-08-22T19:08:48.323Z,29.10
2022-08-22T19:11:52.301Z,29.10
2022-08-22T19:15:07.682Z,29.10
2022-08-22T19:18:20.704Z,29.00
2022-08-22T19:21:42.944Z,29.00
2022-08-22T19:24:57.058Z,28.90
2022-08-22T19:27:48.657Z,28.90
2022-08-22T19:30:43.784Z,28.90
2022-08-22T19:33:41.861Z,28.80
2022-08-22T19:36:33.399Z,28.80
2022-08-22T19:39:54.684Z,28.70
2022-08-22T19:42:49.941Z,28.60
2022-08-22T19:45:41.665Z,28.50
2022-08-22T19:48:33.358Z,28.60
2022-08-22T19:51:30.813Z,28.60
2022-08-22T19:54:25.899Z,28.60
2022-08-22T19:57:20.769Z,28.50
2022-08-22T20:00:13.252Z,28.40
2022-08-22T20:03:09.405Z,28.40
2022-08-22T20:06:06.985Z,28.40
2022-08-22T20:09:16.962Z,28.30
2022-08-22T20:12:15.240Z,28.10
2022-08-22T20:15:18.159Z,28.10
2022-08-22T20:18:47.348Z,28.00
2022-08-22T20:21:40.610Z,28.00
2022-08-22T20:24:40.095Z,28.00
2022-08-22T20:27:33.952Z,28.00
2022-08-22T20:30:29.889Z,28.00
2022-08-22T20:33:25.371Z,27.80
2022-08-22T20:36:28.445Z,27.80
2022-08-22T20:39:21.389Z,27.80
2022-08-22T20:42:16.843Z,27.80
2022-08-22T20:45:12.482Z,27.60
2022-08-22T20:48:02.772Z,27.50
2022-08-22T20:50:52.722Z,27.40
2022-08-22T20:53:42.045Z,27.40
2022-08-22T20:56:35.878Z,27.40
2022-08-22T20:59:36.149Z,27.40
2022-08-22T21:02:30.353Z,27.30
2022-08-22T21:05:23.359Z,27.20
2022-08-22T21:08:15.352Z,27.20
2022-08-22T21:11:24.880Z,27.20
2022-08-22T21:14:21.840Z,27.20
2022-08-22T21:17:25.134Z,27.20
2022-08-22T21:20:21.298Z,27.20
2022-08-22T21:23:15.119Z,27.00
2022-08-22T21:26:07.148Z,26.80
2022-08-22T21:29:00.247Z,26.70
2022-08-22T21:31:51.706Z,26.60
2022-08-22T21:34:47.147Z,26.50
2022-08-22T21:37:39.885Z,26.60
2022-08-22T21:40:34.273Z,26.60
2022-08-22T21:43:34.102Z,26.70
2022-08-22T21:46:28.932Z,26.60
2022-08-22T21:49:23.302Z,26.60
2022-08-22T21:52:26.790Z,26.50
2022-08-22T21:55:27.209Z,26.40
2022-08-22T21:58:35.572Z,26.50
2022-08-22T22:01:31.999Z,26.50
2022-08-22T22:04:21.428Z,26.30
2022-08-22T22:07:10.390Z,26.30
2022-08-22T22:10:01.023Z,26.30
2022-08-22T22:12:53.083Z,26.20
2022-08-22T22:15:44.674Z,26.30
2022-08-22T22:18:34.572Z,26.30
2022-08-22T22:21:23.452Z,26.40
2022-08-22T22:24:13.033Z,26.20
2022-08-22T22:27:05.259Z,26.20
